Flight Track Log - Related Links

Times and Time Zones

All times are in EDT time to prevent confusion due to time zone crossing. See the SWA378 flight status page for this flight to view local times or setup timezone preferences in your user account.

Time Position Orientation Groundspeed Altitude Reporting Facility
EDT Latitude Longitude Course Direction KTS MPH feet Rate Location/Type
11:07AM 37.4000 -121.9667 58° Northeast 170 196 2,100  Level Northern Cal TRACON
11:08AM 37.4167 -121.9333 58° Northeast 239 275 4,400 2,557 Climbing Northern Cal TRACON
11:09AM 37.3833 -121.8667 122° Southeast 268 308 7,000 2,779 Climbing Northern Cal TRACON
11:10AM 37.3453 -121.8378 149° Southeast 267 307 8,800 2,647 Climbing Oakland Center
11:11AM 37.2753 -121.7594 138° Southeast 316 364 11,500 2,829 Climbing Oakland Center
11:12AM 37.2006 -121.6742 138° Southeast 356 410 14,600 3,220 Climbing Oakland Center
11:13AM 37.1244 -121.5881 138° Southeast 366 421 18,100 2,902 Climbing Oakland Center
11:14AM 37.0353 -121.4928 140° Southeast 372 428 20,500 2,683 Climbing Oakland Center
11:15AM 36.9567 -121.4022 137° Southeast 383 441 23,600 2,537 Climbing Oakland Center
11:16AM 36.8781 -121.3136 138° Southeast 382 440 25,700 1,967 Climbing Oakland Center
11:17AM 36.7942 -121.2222 139° Southeast 393 452 27,600 1,854 Climbing Oakland Center
11:18AM 36.7092 -121.1325 140° Southeast 397 457 29,500 1,561 Climbing Oakland Center
11:19AM 36.6231 -121.0369 138° Southeast 404 465 30,800 1,561 Climbing Oakland Center
11:20AM 36.5333 -120.9386 139° Southeast 417 480 32,700 2,146 Climbing Oakland Center
11:21AM 36.4297 -120.8214 138° Southeast 421 484 35,200 1,869 Climbing Oakland Center
11:22AM 36.3589 -120.7083 128° Southeast 415 478 36,500 878 Climbing Oakland Center
11:23AM 36.2864 -120.5908 127° Southeast 428 493 37,000 244 Climbing Oakland Center
11:24AM 36.2106 -120.4728 129° Southeast 435 501 37,000  Level Oakland Center
11:25AM 36.1367 -120.3558 128° Southeast 433 498 37,000 -49 Level Oakland Center
11:26AM 36.0633 -120.2411 128° Southeast 428 493 36,900  Descending Oakland Center
11:27AM 35.9908 -120.1261 128° Southeast 424 488 37,000 49 Climbing Oakland Center
11:28AM 35.9186 -120.0144 129° Southeast 417 480 37,000  Level Oakland Center
11:29AM 35.8469 -119.9006 128° Southeast 418 481 37,000  Level Oakland Center
11:30AM 35.7761 -119.7914 129° Southeast 412 474 37,000  Level Oakland Center
11:31AM 35.7028 -119.6806 129° Southeast 414 476 37,000  Level Oakland Center
11:32AM 35.6181 -119.5503 129° Southeast 407 468 37,000  Level Oakland Center
11:33AM 35.5497 -119.4433 128° Southeast 405 466 37,000 -186 Level Los Angeles Center
11:34AM 35.4786 -119.3347 129° Southeast 405 466 36,600 -677 Descending Los Angeles Center
11:35AM 35.4092 -119.2261 128° Southeast 406 467 35,600 -774 Descending Los Angeles Center
11:36AM 35.3247 -119.0975 129° Southeast 404 465 35,000 -290 Descending Los Angeles Center
11:37AM 35.2525 -118.9889 129° Southeast 408 470 35,000  Level Los Angeles Center
11:38AM 35.1789 -118.8786 129° Southeast 416 479 35,000  Level Los Angeles Center
11:40AM 35.1039 -118.7656 129° Southeast 427 491 35,000 -384 Level Los Angeles Center
11:41AM 35.0281 -118.6539 130° Southeast 428 493 34,200 -1,824 Descending Los Angeles Center
11:42AM 34.9539 -118.5436 129° Southeast 421 484 31,200 -2,647 Descending Los Angeles Center
11:43AM 34.8703 -118.4183 129° Southeast 416 479 28,200 -2,515 Descending Los Angeles Center
11:44AM 34.7872 -118.2958 130° Southeast 396 456 25,500 -1,742 Descending Los Angeles Center
11:45AM 34.7200 -118.1967 129° Southeast 386 444 24,600 -968 Descending Los Angeles Center
11:46AM 34.6508 -118.0950 130° Southeast 391 450 23,500 -1,056 Descending Los Angeles Center
11:47AM 34.5900 -117.9764 122° Southeast 351 404 22,400 -1,488 Descending Los Angeles Center
11:48AM 34.5436 -117.8742 119° Southeast 348 400 20,400 -1,935 Descending Los Angeles Center
11:49AM 34.4961 -117.7711 119° Southeast 351 404 18,400 -1,887 Descending Los Angeles Center
11:50AM 34.4519 -117.6733 119° Southeast 336 387 16,500 -1,887 Descending Los Angeles Center
11:51AM 34.4078 -117.5772 119° Southeast 328 377 14,500 -1,597 Descending Los Angeles Center
11:52AM 34.3611 -117.4758 119° Southeast 303 349 13,200 -1,645 Descending Los Angeles Center
11:53AM 34.3061 -117.4103 135° Southeast 284 327 11,100 -1,790 Descending Los Angeles Center
11:54AM 34.2397 -117.3489 143° Southeast 294 338 9,500 -1,445 Descending Los Angeles Center
11:55AM 34.1547 -117.3281 169° South 273 314 7,800 -1,700 Descending Los Angeles Center
11:56AM 34.1000 -117.3500 198° South 256 295 6,100 -1,657 Descending Southern California TRACON
11:57AM 34.0667 -117.4000 231° Southwest 207 238 4,900 -1,300 Descending Southern California TRACON
11:58AM 34.0500 -117.4667 253° West 170 196 3,500 -1,450 Descending Southern California TRACON
11:59AM 34.0500 -117.5167 270° West 150 173 2,000 -1,150 Descending Southern California TRACON
12:00PM 34.0500 -117.5667 270° West 138 159 1,200 -800 Descending Southern California TRACON
12:03PM 34.0500 -117.6000 270° West  Level FlightAware Approximate

Login

Don't have an account? Register now (free) for customized features, flight alerts, and more!